Quick Links (Output Below):   Max & Min Temps   /   Climate Reports   /   Zone Forecasts
River Forecasts   /   Forestry Forecasts   /   Aviation Forecasts   /   Radars   /   Features

Terminal Aerodrome Forecast (Highfill)

Pick a Site:
Arkadelphia | El Dorado | Fayetteville | Fort Smith | Harrison | Highfill | Hot Springs | Jonesboro
Little Rock | Monticello | Mountain Home | Pine Bluff | Texarkana
 Forecast 

KXNA 292324Z 3000/3024 11010KT P6SM VCTS BKN025CB
      TEMPO 3000/3004 4SM TSRA BKN015CB
     FM300600 16010KT P6SM BKN012
     FM300900 16006KT 4SM BR OVC007
     FM301600 21007KT P6SM BKN015
     FM301900 25007KT P6SM SCT025 BKN250=


 Latest METARs (Observations) 
How to Decode METARs
03Z KXNA 300253Z 15009KT 10SM -RA OVC100 19/18 A2974 RMK AO2 LTG DSNT
         SW AND W SLP064 P0006 60027 T01890178 53017
         
02Z KXNA 300153Z 14013KT 6SM RA BR FEW015 BKN095 OVC110 19/18 A2972
         RMK AO2 LTG DSNT W AND NW SLP057 P0014 T01890178
         
01Z KXNA 300053Z 15010KT 4SM VCTS RA BR FEW014 BKN023 OVC055 18/18
         A2970 RMK AO2 LTG DSNT ALQDS RAB25 TSB37E52 SLP052 P0007
         T01830178
         
00Z KXNA 292353Z 11011KT 10SM BKN020 OVC085 17/17 A2969 RMK AO2 LTG
         DSNT ALQDS RAE2258B32E49 TSE33 SLP046 P0000 60002 T01720167
         10206 20172 55012
         
***** Today's Observations (Above) *****


23Z KXNA 292253Z 10011KT 10SM -TSRA BKN031 BKN047 OVC095 18/16 A2969
         RMK AO2 LTG DSNT ALQDS RAB42 TSB39 SLP046 P0002 T01780161
         
21Z KXNA 292053Z 09014G20KT 10SM OVC019 19/15 A2974 RMK AO2 SLP062
         T01940150 58030
         
20Z KXNA 291953Z 10015G20KT 10SM FEW018 BKN025 21/16 A2977 RMK AO2
         SLP071 T02060156
         
19Z KXNA 291853Z 10013G20KT 10SM OVC018 19/15 A2982 RMK AO2 SLP087
         T01890150
         
18Z KXNA 291753Z 09016G23KT 10SM SCT016 19/15 A2983 RMK AO2 SLP092
         60055 T01890150 10194 20122 58011
         
17Z KXNA 291653Z 10014KT 10SM BKN013 16/13 A2986 RMK AO2 SLP105
         T01610133
         
***** Yesterday's Observations (Above) *****


Back to Main Page
http://www.srh.noaa.gov/lzk/qfcst.php

USA.gov is the U.S. government's official web portal to all federal, state and local government web resources and services.